Terminal Aerodrome Forecast
Issued by NWS

Home | Current Version | Previous Version | Text Only | Print | Product List | Glossary On
Versions: 1 2 3 4 5 6 7 8 9 10 11 12 13 14 15 16 17 18 19 20 21 22 23 24 25 26 27 28 29 30
000
FTUS41 KILN 191142
TAFLUK
TAF
KLUK 191142Z 1912/2012 32012G22KT P6SM VCSH OVC012
     FM191900 36014G27KT P6SM VCSH OVC018
     FM200100 01014G24KT 5SM SHRA BR OVC012
     FM200700 36009KT 5SM SHRA BR OVC012=

USA.gov is the U.S. government's official web portal to all federal, state and local government web resources and services.